sensor_id;sensor_type;location;lat;lon;timestamp;P1;durP1;ratioP1;P2;durP2;ratioP2
79202;SDS011;68630;42.748;23.278;2024-03-29T00:05:36;16.40;;;2.00;;
79202;SDS011;68630;42.748;23.278;2024-03-29T00:08:08;11.35;;;2.40;;
79202;SDS011;68630;42.748;23.278;2024-03-29T00:10:55;16.90;;;2.55;;
79202;SDS011;68630;42.748;23.278;2024-03-29T00:15:58;4.67;;;1.55;;
79202;SDS011;68630;42.748;23.278;2024-03-29T00:18:31;7.72;;;1.50;;
79202;SDS011;68630;42.748;23.278;2024-03-29T00:23:37;11.25;;;1.55;;
79202;SDS011;68630;42.748;23.278;2024-03-29T00:26:29;8.65;;;1.40;;
79202;SDS011;68630;42.748;23.278;2024-03-29T00:29:15;8.78;;;1.10;;
79202;SDS011;68630;42.748;23.278;2024-03-29T00:31:53;6.55;;;1.70;;
79202;SDS011;68630;42.748;23.278;2024-03-29T00:34:31;3.77;;;1.20;;
79202;SDS011;68630;42.748;23.278;2024-03-29T00:37:06;6.25;;;1.77;;
79202;SDS011;68630;42.748;23.278;2024-03-29T00:39:36;3.37;;;1.40;;
79202;SDS011;68630;42.748;23.278;2024-03-29T00:42:17;7.83;;;1.22;;
79202;SDS011;68630;42.748;23.278;2024-03-29T00:44:58;4.75;;;1.65;;
79202;SDS011;68630;42.748;23.278;2024-03-29T00:47:34;6.60;;;1.87;;
79202;SDS011;68630;42.748;23.278;2024-03-29T00:50:11;4.15;;;1.45;;
79202;SDS011;68630;42.748;23.278;2024-03-29T00:52:52;7.17;;;1.40;;
79202;SDS011;68630;42.748;23.278;2024-03-29T00:55:42;3.30;;;1.20;;
79202;SDS011;68630;42.748;23.278;2024-03-29T00:58:30;3.95;;;1.05;;
79202;SDS011;68630;42.748;23.278;2024-03-29T01:01:20;7.95;;;1.62;;
79202;SDS011;68630;42.748;23.278;2024-03-29T01:04:16;7.12;;;1.57;;
79202;SDS011;68630;42.748;23.278;2024-03-29T01:06:55;5.53;;;1.60;;
79202;SDS011;68630;42.748;23.278;2024-03-29T01:09:37;2.72;;;1.22;;
79202;SDS011;68630;42.748;23.278;2024-03-29T01:12:11;6.65;;;1.70;;
79202;SDS011;68630;42.748;23.278;2024-03-29T01:15:10;4.03;;;1.20;;
79202;SDS011;68630;42.748;23.278;2024-03-29T01:17:53;4.28;;;1.12;;
79202;SDS011;68630;42.748;23.278;2024-03-29T01:20:31;5.83;;;1.25;;
79202;SDS011;68630;42.748;23.278;2024-03-29T01:28:36;5.47;;;1.10;;
79202;SDS011;68630;42.748;23.278;2024-03-29T01:31:19;7.65;;;1.25;;
79202;SDS011;68630;42.748;23.278;2024-03-29T01:34:07;6.45;;;1.05;;
79202;SDS011;68630;42.748;23.278;2024-03-29T01:36:40;3.77;;;0.93;;
79202;SDS011;68630;42.748;23.278;2024-03-29T01:39:16;2.80;;;1.17;;
79202;SDS011;68630;42.748;23.278;2024-03-29T01:42:06;6.47;;;1.30;;
79202;SDS011;68630;42.748;23.278;2024-03-29T01:44:48;10.48;;;1.45;;
79202;SDS011;68630;42.748;23.278;2024-03-29T01:47:22;5.00;;;1.27;;
79202;SDS011;68630;42.748;23.278;2024-03-29T01:49:55;12.88;;;1.35;;
79202;SDS011;68630;42.748;23.278;2024-03-29T01:52:31;6.72;;;1.20;;
79202;SDS011;68630;42.748;23.278;2024-03-29T01:57:37;4.50;;;1.40;;
79202;SDS011;68630;42.748;23.278;2024-03-29T02:00:22;6.90;;;2.05;;
79202;SDS011;68630;42.748;23.278;2024-03-29T02:02:58;6.00;;;1.45;;
79202;SDS011;68630;42.748;23.278;2024-03-29T02:05:32;8.23;;;1.60;;
79202;SDS011;68630;42.748;23.278;2024-03-29T02:08:03;4.83;;;1.60;;
79202;SDS011;68630;42.748;23.278;2024-03-29T02:10:40;7.87;;;1.57;;
79202;SDS011;68630;42.748;23.278;2024-03-29T02:13:11;3.25;;;1.62;;
79202;SDS011;68630;42.748;23.278;2024-03-29T02:15:42;5.55;;;1.50;;
79202;SDS011;68630;42.748;23.278;2024-03-29T02:18:11;6.22;;;1.60;;
79202;SDS011;68630;42.748;23.278;2024-03-29T02:20:46;6.03;;;1.40;;
79202;SDS011;68630;42.748;23.278;2024-03-29T02:33:46;5.05;;;1.70;;
79202;SDS011;68630;42.748;23.278;2024-03-29T02:36:25;3.17;;;1.17;;
79202;SDS011;68630;42.748;23.278;2024-03-29T02:41:28;5.70;;;1.50;;
79202;SDS011;68630;42.748;23.278;2024-03-29T02:44:13;6.62;;;1.50;;
79202;SDS011;68630;42.748;23.278;2024-03-29T02:46:43;4.47;;;1.35;;
79202;SDS011;68630;42.748;23.278;2024-03-29T02:52:24;2.77;;;1.20;;
79202;SDS011;68630;42.748;23.278;2024-03-29T03:01:11;13.45;;;1.60;;
79202;SDS011;68630;42.748;23.278;2024-03-29T03:03:53;7.25;;;1.77;;
79202;SDS011;68630;42.748;23.278;2024-03-29T03:06:32;6.87;;;1.85;;
79202;SDS011;68630;42.748;23.278;2024-03-29T03:12:12;6.00;;;1.37;;
79202;SDS011;68630;42.748;23.278;2024-03-29T03:14:57;5.53;;;1.50;;
79202;SDS011;68630;42.748;23.278;2024-03-29T03:17:45;3.50;;;1.17;;
79202;SDS011;68630;42.748;23.278;2024-03-29T03:20:23;11.12;;;1.37;;
79202;SDS011;68630;42.748;23.278;2024-03-29T03:22:57;3.95;;;0.90;;
79202;SDS011;68630;42.748;23.278;2024-03-29T03:28:17;8.03;;;1.67;;
79202;SDS011;68630;42.748;23.278;2024-03-29T03:30:48;9.00;;;1.27;;
79202;SDS011;68630;42.748;23.278;2024-03-29T03:33:20;6.30;;;1.22;;
79202;SDS011;68630;42.748;23.278;2024-03-29T03:35:50;8.53;;;1.57;;
79202;SDS011;68630;42.748;23.278;2024-03-29T03:38:20;5.45;;;1.40;;
79202;SDS011;68630;42.748;23.278;2024-03-29T03:41:02;4.35;;;1.40;;
79202;SDS011;68630;42.748;23.278;2024-03-29T03:43:41;7.67;;;1.32;;
79202;SDS011;68630;42.748;23.278;2024-03-29T03:46:13;5.72;;;1.35;;
79202;SDS011;68630;42.748;23.278;2024-03-29T03:48:41;4.83;;;1.37;;
79202;SDS011;68630;42.748;23.278;2024-03-29T03:51:13;4.78;;;1.77;;
79202;SDS011;68630;42.748;23.278;2024-03-29T03:53:44;11.88;;;2.22;;
79202;SDS011;68630;42.748;23.278;2024-03-29T03:59:35;10.38;;;2.12;;
79202;SDS011;68630;42.748;23.278;2024-03-29T04:07:37;6.90;;;1.72;;
79202;SDS011;68630;42.748;23.278;2024-03-29T04:10:14;9.28;;;1.60;;
79202;SDS011;68630;42.748;23.278;2024-03-29T04:12:46;13.10;;;1.72;;
79202;SDS011;68630;42.748;23.278;2024-03-29T04:15:17;12.98;;;2.10;;
79202;SDS011;68630;42.748;23.278;2024-03-29T04:17:50;6.60;;;1.80;;
79202;SDS011;68630;42.748;23.278;2024-03-29T04:20:26;10.63;;;2.27;;
79202;SDS011;68630;42.748;23.278;2024-03-29T04:22:55;14.53;;;2.15;;
79202;SDS011;68630;42.748;23.278;2024-03-29T04:25:31;12.95;;;3.35;;
79202;SDS011;68630;42.748;23.278;2024-03-29T04:28:01;13.43;;;3.15;;
79202;SDS011;68630;42.748;23.278;2024-03-29T04:30:33;23.77;;;3.65;;
79202;SDS011;68630;42.748;23.278;2024-03-29T04:33:04;23.20;;;3.30;;
79202;SDS011;68630;42.748;23.278;2024-03-29T04:35:37;26.50;;;3.70;;
79202;SDS011;68630;42.748;23.278;2024-03-29T04:38:06;25.12;;;2.87;;
79202;SDS011;68630;42.748;23.278;2024-03-29T04:40:40;15.23;;;3.30;;
79202;SDS011;68630;42.748;23.278;2024-03-29T04:43:19;12.15;;;2.87;;
79202;SDS011;68630;42.748;23.278;2024-03-29T04:46:00;11.25;;;2.50;;
79202;SDS011;68630;42.748;23.278;2024-03-29T04:48:32;15.05;;;3.12;;
79202;SDS011;68630;42.748;23.278;2024-03-29T04:51:09;10.58;;;2.62;;
79202;SDS011;68630;42.748;23.278;2024-03-29T04:53:38;8.88;;;2.40;;
79202;SDS011;68630;42.748;23.278;2024-03-29T04:56:12;15.95;;;2.70;;
79202;SDS011;68630;42.748;23.278;2024-03-29T05:01:24;12.73;;;2.50;;
79202;SDS011;68630;42.748;23.278;2024-03-29T05:04:05;12.15;;;2.27;;
79202;SDS011;68630;42.748;23.278;2024-03-29T05:06:35;8.55;;;2.47;;
79202;SDS011;68630;42.748;23.278;2024-03-29T05:09:12;7.03;;;2.10;;
79202;SDS011;68630;42.748;23.278;2024-03-29T05:16:53;5.10;;;1.35;;
79202;SDS011;68630;42.748;23.278;2024-03-29T05:19:28;10.70;;;1.45;;
79202;SDS011;68630;42.748;23.278;2024-03-29T05:22:13;6.05;;;1.75;;
79202;SDS011;68630;42.748;23.278;2024-03-29T05:24:54;10.63;;;2.12;;
79202;SDS011;68630;42.748;23.278;2024-03-29T05:27:46;19.77;;;4.87;;
79202;SDS011;68630;42.748;23.278;2024-03-29T05:30:23;23.02;;;5.90;;
79202;SDS011;68630;42.748;23.278;2024-03-29T05:33:15;15.35;;;5.08;;
79202;SDS011;68630;42.748;23.278;2024-03-29T05:35:45;15.63;;;4.53;;
79202;SDS011;68630;42.748;23.278;2024-03-29T05:38:21;23.83;;;3.65;;
79202;SDS011;68630;42.748;23.278;2024-03-29T05:40:52;11.05;;;3.25;;
79202;SDS011;68630;42.748;23.278;2024-03-29T05:43:29;11.00;;;2.65;;
79202;SDS011;68630;42.748;23.278;2024-03-29T05:46:02;17.07;;;2.45;;
79202;SDS011;68630;42.748;23.278;2024-03-29T05:48:37;11.43;;;2.25;;
79202;SDS011;68630;42.748;23.278;2024-03-29T05:51:14;13.28;;;2.67;;
79202;SDS011;68630;42.748;23.278;2024-03-29T05:53:43;14.07;;;2.40;;
79202;SDS011;68630;42.748;23.278;2024-03-29T05:56:13;13.45;;;2.27;;
79202;SDS011;68630;42.748;23.278;2024-03-29T05:58:45;8.33;;;2.20;;
79202;SDS011;68630;42.748;23.278;2024-03-29T06:01:16;13.75;;;2.70;;
79202;SDS011;68630;42.748;23.278;2024-03-29T06:03:54;15.13;;;2.70;;
79202;SDS011;68630;42.748;23.278;2024-03-29T06:07:04;13.00;;;2.02;;
79202;SDS011;68630;42.748;23.278;2024-03-29T06:09:33;8.68;;;1.80;;
79202;SDS011;68630;42.748;23.278;2024-03-29T06:12:08;13.75;;;1.80;;
79202;SDS011;68630;42.748;23.278;2024-03-29T06:14:39;6.53;;;1.65;;
79202;SDS011;68630;42.748;23.278;2024-03-29T07:26:35;3.65;;;1.07;;
79202;SDS011;68630;42.748;23.278;2024-03-29T08:19:54;4.20;;;1.10;;
79202;SDS011;68630;42.748;23.278;2024-03-29T08:22:25;4.80;;;1.40;;
79202;SDS011;68630;42.748;23.278;2024-03-29T08:24:56;6.25;;;1.20;;
79202;SDS011;68630;42.748;23.278;2024-03-29T08:27:28;9.60;;;1.17;;
79202;SDS011;68630;42.748;23.278;2024-03-29T08:29:56;7.65;;;0.93;;
79202;SDS011;68630;42.748;23.278;2024-03-29T08:37:54;6.90;;;1.47;;
79202;SDS011;68630;42.748;23.278;2024-03-29T08:40:18;6.50;;;1.05;;
79202;SDS011;68630;42.748;23.278;2024-03-29T08:42:50;4.12;;;0.93;;
79202;SDS011;68630;42.748;23.278;2024-03-29T08:45:21;6.95;;;1.20;;
79202;SDS011;68630;42.748;23.278;2024-03-29T08:47:46;4.83;;;1.05;;
79202;SDS011;68630;42.748;23.278;2024-03-29T08:50:16;5.83;;;1.32;;
79202;SDS011;68630;42.748;23.278;2024-03-29T08:52:45;7.87;;;1.30;;
79202;SDS011;68630;42.748;23.278;2024-03-29T08:55:13;5.17;;;0.90;;
79202;SDS011;68630;42.748;23.278;2024-03-29T08:57:40;11.22;;;1.47;;
79202;SDS011;68630;42.748;23.278;2024-03-29T09:00:08;8.00;;;1.37;;
79202;SDS011;68630;42.748;23.278;2024-03-29T09:02:36;6.28;;;1.20;;
79202;SDS011;68630;42.748;23.278;2024-03-29T09:05:03;6.05;;;1.15;;
79202;SDS011;68630;42.748;23.278;2024-03-29T09:07:31;8.65;;;1.45;;
79202;SDS011;68630;42.748;23.278;2024-03-29T09:09:59;9.83;;;1.72;;
79202;SDS011;68630;42.748;23.278;2024-03-29T09:12:26;5.50;;;1.62;;
79202;SDS011;68630;42.748;23.278;2024-03-29T09:14:54;6.25;;;1.12;;
79202;SDS011;68630;42.748;23.278;2024-03-29T09:17:21;6.00;;;0.98;;
79202;SDS011;68630;42.748;23.278;2024-03-29T09:19:51;6.05;;;1.12;;
79202;SDS011;68630;42.748;23.278;2024-03-29T09:22:18;5.58;;;1.10;;
79202;SDS011;68630;42.748;23.278;2024-03-29T09:24:47;4.92;;;1.10;;
79202;SDS011;68630;42.748;23.278;2024-03-29T09:27:19;3.20;;;1.07;;
79202;SDS011;68630;42.748;23.278;2024-03-29T09:29:48;8.75;;;1.27;;
79202;SDS011;68630;42.748;23.278;2024-03-29T09:32:15;5.53;;;1.22;;
79202;SDS011;68630;42.748;23.278;2024-03-29T09:34:44;5.50;;;1.22;;
79202;SDS011;68630;42.748;23.278;2024-03-29T09:40:35;5.22;;;1.10;;
79202;SDS011;68630;42.748;23.278;2024-03-29T09:43:00;7.22;;;1.47;;
79202;SDS011;68630;42.748;23.278;2024-03-29T09:45:30;4.58;;;1.17;;
79202;SDS011;68630;42.748;23.278;2024-03-29T09:48:08;5.45;;;1.27;;
79202;SDS011;68630;42.748;23.278;2024-03-29T09:50:31;5.20;;;1.40;;
79202;SDS011;68630;42.748;23.278;2024-03-29T09:53:08;9.55;;;1.50;;
79202;SDS011;68630;42.748;23.278;2024-03-29T09:55:38;7.33;;;1.42;;
79202;SDS011;68630;42.748;23.278;2024-03-29T09:58:05;15.13;;;1.72;;
79202;SDS011;68630;42.748;23.278;2024-03-29T10:00:34;5.72;;;1.20;;
79202;SDS011;68630;42.748;23.278;2024-03-29T10:03:02;8.50;;;1.45;;
79202;SDS011;68630;42.748;23.278;2024-03-29T10:05:33;16.75;;;2.33;;
79202;SDS011;68630;42.748;23.278;2024-03-29T10:08:03;5.67;;;1.17;;
79202;SDS011;68630;42.748;23.278;2024-03-29T10:10:49;4.65;;;1.00;;
79202;SDS011;68630;42.748;23.278;2024-03-29T10:13:28;7.65;;;1.37;;
79202;SDS011;68630;42.748;23.278;2024-03-29T10:16:03;7.15;;;1.40;;
79202;SDS011;68630;42.748;23.278;2024-03-29T10:18:33;5.30;;;1.22;;
79202;SDS011;68630;42.748;23.278;2024-03-29T10:21:04;7.75;;;1.70;;
79202;SDS011;68630;42.748;23.278;2024-03-29T10:23:34;6.58;;;1.00;;
79202;SDS011;68630;42.748;23.278;2024-03-29T10:26:04;5.20;;;1.37;;
79202;SDS011;68630;42.748;23.278;2024-03-29T10:28:33;7.67;;;1.60;;
79202;SDS011;68630;42.748;23.278;2024-03-29T10:31:03;13.40;;;1.90;;
79202;SDS011;68630;42.748;23.278;2024-03-29T10:33:32;9.95;;;1.47;;
79202;SDS011;68630;42.748;23.278;2024-03-29T10:36:08;6.08;;;1.40;;
79202;SDS011;68630;42.748;23.278;2024-03-29T10:38:42;11.78;;;1.65;;
79202;SDS011;68630;42.748;23.278;2024-03-29T10:41:10;8.20;;;1.52;;
79202;SDS011;68630;42.748;23.278;2024-03-29T10:46:18;11.40;;;1.50;;
79202;SDS011;68630;42.748;23.278;2024-03-29T10:48:47;8.20;;;1.32;;
79202;SDS011;68630;42.748;23.278;2024-03-29T10:51:26;22.58;;;1.77;;
79202;SDS011;68630;42.748;23.278;2024-03-29T10:53:57;6.03;;;1.40;;
79202;SDS011;68630;42.748;23.278;2024-03-29T10:56:28;13.72;;;1.40;;
79202;SDS011;68630;42.748;23.278;2024-03-29T10:58:57;7.95;;;1.40;;
79202;SDS011;68630;42.748;23.278;2024-03-29T11:01:29;10.55;;;1.50;;
79202;SDS011;68630;42.748;23.278;2024-03-29T11:04:01;5.33;;;1.20;;
79202;SDS011;68630;42.748;23.278;2024-03-29T11:06:30;6.78;;;1.30;;
79202;SDS011;68630;42.748;23.278;2024-03-29T11:09:03;6.15;;;1.57;;
79202;SDS011;68630;42.748;23.278;2024-03-29T11:11:35;8.08;;;1.60;;
79202;SDS011;68630;42.748;23.278;2024-03-29T11:14:10;8.88;;;1.87;;
79202;SDS011;68630;42.748;23.278;2024-03-29T11:16:42;8.58;;;1.45;;
79202;SDS011;68630;42.748;23.278;2024-03-29T11:19:17;9.00;;;1.52;;
79202;SDS011;68630;42.748;23.278;2024-03-29T11:21:41;11.60;;;2.00;;
79202;SDS011;68630;42.748;23.278;2024-03-29T11:24:12;8.55;;;1.55;;
79202;SDS011;68630;42.748;23.278;2024-03-29T11:26:45;3.35;;;1.20;;
79202;SDS011;68630;42.748;23.278;2024-03-29T11:29:23;6.35;;;1.50;;
79202;SDS011;68630;42.748;23.278;2024-03-29T11:31:56;9.10;;;1.42;;
79202;SDS011;68630;42.748;23.278;2024-03-29T11:40:39;7.78;;;1.45;;
79202;SDS011;68630;42.748;23.278;2024-03-29T11:43:09;5.03;;;1.27;;
79202;SDS011;68630;42.748;23.278;2024-03-29T11:48:41;8.63;;;1.47;;
79202;SDS011;68630;42.748;23.278;2024-03-29T11:51:11;5.08;;;1.17;;
79202;SDS011;68630;42.748;23.278;2024-03-29T11:53:47;11.18;;;1.67;;
79202;SDS011;68630;42.748;23.278;2024-03-29T11:56:19;6.20;;;1.30;;
79202;SDS011;68630;42.748;23.278;2024-03-29T11:58:49;7.15;;;1.62;;
79202;SDS011;68630;42.748;23.278;2024-03-29T12:01:19;7.67;;;1.57;;
79202;SDS011;68630;42.748;23.278;2024-03-29T12:03:47;10.80;;;1.90;;
79202;SDS011;68630;42.748;23.278;2024-03-29T12:06:18;6.42;;;1.40;;
79202;SDS011;68630;42.748;23.278;2024-03-29T12:08:48;6.47;;;1.35;;
79202;SDS011;68630;42.748;23.278;2024-03-29T12:17:13;4.75;;;1.27;;
79202;SDS011;68630;42.748;23.278;2024-03-29T12:19:40;12.63;;;2.10;;
79202;SDS011;68630;42.748;23.278;2024-03-29T12:22:20;5.08;;;1.25;;
79202;SDS011;68630;42.748;23.278;2024-03-29T12:24:50;11.65;;;1.40;;
79202;SDS011;68630;42.748;23.278;2024-03-29T12:27:22;7.15;;;1.20;;
79202;SDS011;68630;42.748;23.278;2024-03-29T12:29:51;12.15;;;1.60;;
79202;SDS011;68630;42.748;23.278;2024-03-29T12:32:20;12.10;;;1.57;;
79202;SDS011;68630;42.748;23.278;2024-03-29T12:34:50;5.62;;;1.00;;
79202;SDS011;68630;42.748;23.278;2024-03-29T12:37:20;12.43;;;1.25;;
79202;SDS011;68630;42.748;23.278;2024-03-29T12:39:50;5.53;;;1.05;;
79202;SDS011;68630;42.748;23.278;2024-03-29T12:42:23;6.60;;;1.60;;
79202;SDS011;68630;42.748;23.278;2024-03-29T12:44:51;6.28;;;1.15;;
79202;SDS011;68630;42.748;23.278;2024-03-29T12:47:21;8.18;;;1.80;;
79202;SDS011;68630;42.748;23.278;2024-03-29T12:53:13;6.47;;;1.22;;
79202;SDS011;68630;42.748;23.278;2024-03-29T12:55:55;21.45;;;2.20;;
79202;SDS011;68630;42.748;23.278;2024-03-29T12:58:25;3.98;;;1.00;;
79202;SDS011;68630;42.748;23.278;2024-03-29T13:00:52;7.65;;;1.05;;
79202;SDS011;68630;42.748;23.278;2024-03-29T13:03:20;6.92;;;1.12;;
79202;SDS011;68630;42.748;23.278;2024-03-29T13:05:47;4.72;;;1.22;;
79202;SDS011;68630;42.748;23.278;2024-03-29T13:08:15;6.20;;;1.10;;
79202;SDS011;68630;42.748;23.278;2024-03-29T13:10:43;5.00;;;1.00;;
79202;SDS011;68630;42.748;23.278;2024-03-29T13:16:19;10.53;;;1.55;;
79202;SDS011;68630;42.748;23.278;2024-03-29T13:18:47;5.78;;;1.00;;
79202;SDS011;68630;42.748;23.278;2024-03-29T13:21:14;12.10;;;2.00;;
79202;SDS011;68630;42.748;23.278;2024-03-29T13:23:42;5.03;;;1.82;;
79202;SDS011;68630;42.748;23.278;2024-03-29T13:26:09;5.22;;;1.32;;
79202;SDS011;68630;42.748;23.278;2024-03-29T13:28:37;4.85;;;1.45;;
79202;SDS011;68630;42.748;23.278;2024-03-29T13:31:04;6.33;;;1.20;;
79202;SDS011;68630;42.748;23.278;2024-03-29T13:33:32;7.47;;;1.50;;
79202;SDS011;68630;42.748;23.278;2024-03-29T13:35:59;8.05;;;1.30;;
79202;SDS011;68630;42.748;23.278;2024-03-29T13:38:27;7.00;;;1.10;;
79202;SDS011;68630;42.748;23.278;2024-03-29T13:40:55;9.88;;;1.30;;
79202;SDS011;68630;42.748;23.278;2024-03-29T13:43:24;7.55;;;1.52;;
79202;SDS011;68630;42.748;23.278;2024-03-29T13:45:54;5.97;;;1.20;;
79202;SDS011;68630;42.748;23.278;2024-03-29T13:51:14;8.00;;;1.37;;
79202;SDS011;68630;42.748;23.278;2024-03-29T13:53:41;6.58;;;1.20;;
79202;SDS011;68630;42.748;23.278;2024-03-29T13:56:09;5.12;;;1.32;;
79202;SDS011;68630;42.748;23.278;2024-03-29T13:58:40;8.50;;;1.30;;
79202;SDS011;68630;42.748;23.278;2024-03-29T14:01:09;5.90;;;1.02;;
79202;SDS011;68630;42.748;23.278;2024-03-29T14:03:36;7.87;;;1.40;;
79202;SDS011;68630;42.748;23.278;2024-03-29T14:06:04;4.05;;;0.90;;
79202;SDS011;68630;42.748;23.278;2024-03-29T14:11:16;5.30;;;1.40;;
79202;SDS011;68630;42.748;23.278;2024-03-29T14:13:44;5.42;;;1.17;;
79202;SDS011;68630;42.748;23.278;2024-03-29T14:16:15;16.85;;;1.50;;
79202;SDS011;68630;42.748;23.278;2024-03-29T14:18:42;5.15;;;1.00;;
79202;SDS011;68630;42.748;23.278;2024-03-29T14:21:09;5.55;;;0.98;;
79202;SDS011;68630;42.748;23.278;2024-03-29T14:23:37;6.45;;;1.62;;
79202;SDS011;68630;42.748;23.278;2024-03-29T14:26:09;9.35;;;1.40;;
79202;SDS011;68630;42.748;23.278;2024-03-29T14:28:35;4.60;;;1.40;;
79202;SDS011;68630;42.748;23.278;2024-03-29T14:31:02;10.35;;;1.42;;
79202;SDS011;68630;42.748;23.278;2024-03-29T14:33:30;3.40;;;1.17;;
79202;SDS011;68630;42.748;23.278;2024-03-29T14:36:14;9.85;;;1.15;;
79202;SDS011;68630;42.748;23.278;2024-03-29T14:41:23;8.15;;;1.30;;
79202;SDS011;68630;42.748;23.278;2024-03-29T14:44:01;11.57;;;1.50;;
79202;SDS011;68630;42.748;23.278;2024-03-29T14:46:29;8.43;;;1.50;;
79202;SDS011;68630;42.748;23.278;2024-03-29T14:48:56;7.97;;;1.40;;
79202;SDS011;68630;42.748;23.278;2024-03-29T14:51:24;12.47;;;1.90;;
79202;SDS011;68630;42.748;23.278;2024-03-29T14:53:58;4.17;;;1.52;;
79202;SDS011;68630;42.748;23.278;2024-03-29T14:56:22;4.90;;;1.17;;
79202;SDS011;68630;42.748;23.278;2024-03-29T14:58:50;4.75;;;1.40;;
79202;SDS011;68630;42.748;23.278;2024-03-29T15:01:17;2.47;;;1.05;;
79202;SDS011;68630;42.748;23.278;2024-03-29T15:03:45;8.98;;;1.57;;
79202;SDS011;68630;42.748;23.278;2024-03-29T15:06:14;6.78;;;1.30;;
79202;SDS011;68630;42.748;23.278;2024-03-29T15:08:41;23.98;;;6.97;;
79202;SDS011;68630;42.748;23.278;2024-03-29T15:11:16;5.87;;;1.80;;
79202;SDS011;68630;42.748;23.278;2024-03-29T15:13:54;23.02;;;6.78;;
79202;SDS011;68630;42.748;23.278;2024-03-29T15:16:26;10.75;;;1.65;;
79202;SDS011;68630;42.748;23.278;2024-03-29T15:19:02;15.30;;;1.70;;
79202;SDS011;68630;42.748;23.278;2024-03-29T15:24:24;20.90;;;2.15;;
79202;SDS011;68630;42.748;23.278;2024-03-29T15:26:55;6.95;;;1.50;;
79202;SDS011;68630;42.748;23.278;2024-03-29T15:29:26;11.57;;;1.70;;
79202;SDS011;68630;42.748;23.278;2024-03-29T15:31:54;6.95;;;1.40;;
79202;SDS011;68630;42.748;23.278;2024-03-29T15:34:31;9.10;;;1.13;;
79202;SDS011;68630;42.748;23.278;2024-03-29T15:40:00;8.35;;;1.50;;
79202;SDS011;68630;42.748;23.278;2024-03-29T15:42:34;4.55;;;1.32;;
79202;SDS011;68630;42.748;23.278;2024-03-29T15:58:18;7.58;;;2.00;;
79202;SDS011;68630;42.748;23.278;2024-03-29T16:00:53;3.45;;;1.20;;
79202;SDS011;68630;42.748;23.278;2024-03-29T16:03:17;9.28;;;1.32;;
79202;SDS011;68630;42.748;23.278;2024-03-29T16:05:45;11.45;;;1.27;;
79202;SDS011;68630;42.748;23.278;2024-03-29T16:13:42;10.50;;;2.22;;
79202;SDS011;68630;42.748;23.278;2024-03-29T16:16:12;8.45;;;1.70;;
79202;SDS011;68630;42.748;23.278;2024-03-29T16:26:55;4.85;;;1.07;;
79202;SDS011;68630;42.748;23.278;2024-03-29T16:32:28;3.98;;;0.95;;
79202;SDS011;68630;42.748;23.278;2024-03-29T16:35:12;7.45;;;1.17;;
79202;SDS011;68630;42.748;23.278;2024-03-29T16:41:42;11.22;;;1.90;;
79202;SDS011;68630;42.748;23.278;2024-03-29T16:44:23;9.10;;;1.72;;
79202;SDS011;68630;42.748;23.278;2024-03-29T16:49:34;15.45;;;2.10;;
79202;SDS011;68630;42.748;23.278;2024-03-29T16:52:13;42.58;;;5.90;;
79202;SDS011;68630;42.748;23.278;2024-03-29T16:54:45;23.57;;;4.83;;
79202;SDS011;68630;42.748;23.278;2024-03-29T16:57:20;28.00;;;5.22;;
79202;SDS011;68630;42.748;23.278;2024-03-29T16:59:59;26.00;;;5.37;;
79202;SDS011;68630;42.748;23.278;2024-03-29T17:02:29;23.38;;;3.70;;
79202;SDS011;68630;42.748;23.278;2024-03-29T17:05:05;32.42;;;4.62;;
79202;SDS011;68630;42.748;23.278;2024-03-29T17:07:37;27.17;;;4.60;;
79202;SDS011;68630;42.748;23.278;2024-03-29T17:10:04;44.53;;;5.83;;
79202;SDS011;68630;42.748;23.278;2024-03-29T17:12:33;66.72;;;7.15;;
79202;SDS011;68630;42.748;23.278;2024-03-29T17:15:01;49.03;;;6.90;;
79202;SDS011;68630;42.748;23.278;2024-03-29T17:17:35;35.10;;;6.58;;
79202;SDS011;68630;42.748;23.278;2024-03-29T17:20:10;19.92;;;5.30;;
79202;SDS011;68630;42.748;23.278;2024-03-29T17:22:42;22.52;;;5.12;;
79202;SDS011;68630;42.748;23.278;2024-03-29T17:25:16;19.05;;;4.80;;
79202;SDS011;68630;42.748;23.278;2024-03-29T17:27:41;9.33;;;2.98;;
79202;SDS011;68630;42.748;23.278;2024-03-29T17:30:09;14.95;;;4.75;;
79202;SDS011;68630;42.748;23.278;2024-03-29T17:32:40;17.50;;;5.10;;
79202;SDS011;68630;42.748;23.278;2024-03-29T17:35:17;24.70;;;8.20;;
79202;SDS011;68630;42.748;23.278;2024-03-29T17:37:53;23.27;;;6.87;;
79202;SDS011;68630;42.748;23.278;2024-03-29T17:40:19;24.50;;;7.15;;
79202;SDS011;68630;42.748;23.278;2024-03-29T17:42:56;22.93;;;5.10;;
79202;SDS011;68630;42.748;23.278;2024-03-29T17:45:24;22.30;;;7.28;;
79202;SDS011;68630;42.748;23.278;2024-03-29T17:47:59;51.02;;;9.48;;
79202;SDS011;68630;42.748;23.278;2024-03-29T17:50:26;42.03;;;9.35;;
79202;SDS011;68630;42.748;23.278;2024-03-29T17:53:01;36.90;;;9.35;;
79202;SDS011;68630;42.748;23.278;2024-03-29T17:55:30;38.50;;;8.95;;
79202;SDS011;68630;42.748;23.278;2024-03-29T17:57:59;52.60;;;9.65;;
79202;SDS011;68630;42.748;23.278;2024-03-29T18:00:36;55.15;;;9.13;;
79202;SDS011;68630;42.748;23.278;2024-03-29T18:03:03;36.95;;;9.25;;
79202;SDS011;68630;42.748;23.278;2024-03-29T18:05:31;38.33;;;8.60;;
79202;SDS011;68630;42.748;23.278;2024-03-29T18:07:59;24.25;;;4.65;;
79202;SDS011;68630;42.748;23.278;2024-03-29T18:10:35;25.65;;;5.55;;
79202;SDS011;68630;42.748;23.278;2024-03-29T18:13:09;20.85;;;3.75;;
79202;SDS011;68630;42.748;23.278;2024-03-29T18:15:38;16.65;;;3.50;;
79202;SDS011;68630;42.748;23.278;2024-03-29T18:18:16;17.60;;;3.15;;
79202;SDS011;68630;42.748;23.278;2024-03-29T18:20:51;16.12;;;3.70;;
79202;SDS011;68630;42.748;23.278;2024-03-29T18:23:39;12.20;;;3.45;;
79202;SDS011;68630;42.748;23.278;2024-03-29T18:26:14;13.40;;;2.80;;
79202;SDS011;68630;42.748;23.278;2024-03-29T18:28:42;14.98;;;3.25;;
79202;SDS011;68630;42.748;23.278;2024-03-29T18:33:45;46.37;;;4.90;;
79202;SDS011;68630;42.748;23.278;2024-03-29T18:38:53;25.95;;;6.10;;
79202;SDS011;68630;42.748;23.278;2024-03-29T18:41:21;47.83;;;6.50;;
79202;SDS011;68630;42.748;23.278;2024-03-29T18:43:56;36.98;;;5.80;;
79202;SDS011;68630;42.748;23.278;2024-03-29T18:46:31;16.02;;;4.30;;
79202;SDS011;68630;42.748;23.278;2024-03-29T18:48:59;13.60;;;3.47;;
79202;SDS011;68630;42.748;23.278;2024-03-29T18:51:29;18.05;;;3.55;;
79202;SDS011;68630;42.748;23.278;2024-03-29T18:54:00;15.63;;;3.40;;
79202;SDS011;68630;42.748;23.278;2024-03-29T18:56:29;24.05;;;3.20;;
79202;SDS011;68630;42.748;23.278;2024-03-29T18:59:01;16.57;;;3.40;;
79202;SDS011;68630;42.748;23.278;2024-03-29T19:01:32;21.02;;;5.12;;
79202;SDS011;68630;42.748;23.278;2024-03-29T19:04:01;42.15;;;8.38;;
79202;SDS011;68630;42.748;23.278;2024-03-29T19:06:32;40.40;;;9.98;;
79202;SDS011;68630;42.748;23.278;2024-03-29T19:09:06;13.15;;;3.70;;
79202;SDS011;68630;42.748;23.278;2024-03-29T19:11:36;29.02;;;6.25;;
79202;SDS011;68630;42.748;23.278;2024-03-29T19:14:04;27.25;;;6.03;;
79202;SDS011;68630;42.748;23.278;2024-03-29T19:16:32;20.20;;;5.12;;
79202;SDS011;68630;42.748;23.278;2024-03-29T19:19:03;20.08;;;4.97;;
79202;SDS011;68630;42.748;23.278;2024-03-29T19:21:32;15.50;;;4.08;;
79202;SDS011;68630;42.748;23.278;2024-03-29T19:24:04;23.62;;;5.50;;
79202;SDS011;68630;42.748;23.278;2024-03-29T19:26:36;29.85;;;5.85;;
79202;SDS011;68630;42.748;23.278;2024-03-29T19:29:06;22.73;;;6.28;;
79202;SDS011;68630;42.748;23.278;2024-03-29T19:31:38;34.80;;;6.60;;